aviador You're here:

OMRK Decoded Metar

RAS AL KHAIMAH in UNITED ARAB EMIRATES
Report Time2017-06-24 17:00:00
UTC Time2017-06-24 17:09:34
Flight Rules vfr VFR
Wind320° at 03 kt
W.Decomp.*RWY 34: 2.8 kt HW 1.1 kt LCW
W.Rank320° ranks 11
Current wind is below 320° avg. (6.9)
Visibility9999 m
Phenomena:N/A
Clouds:N/A
Expected CloudBase > 3,600 ft AGL from Temp-Dew spread
CeilingNone
Temp33°C (ISA +18)
Dew Point24°C (59% RH)
Heat Index39.2°C
QNH0998 hPa
Density Alt3,074 ft
Elevation102 ft
Report Wrong Elevation
Raw Report
METAR OMRK 241700Z 32003KT CAVOK 33/24 Q0998 A2949=

Extra information for OMRK:More info

Metar Taf Metar & Taf Last 4 Metars F.Rules Stats Wind Profile Meteogram Temp Stats Airport Information Weather charts Add Link Nearby VenuesMetar ALERT Operation Metar Decoded Social comments